Time;durP1;ratioP1;P1;durP2;ratioP2;P2;SDS_P1;SDS_P2;PMS_P1;PMS_P2;Temp;Humidity;BMP_temperature;BMP_pressure;BME280_temperature;BME280_humidity;BME280_pressure;Samples;Min_cycle;Max_cycle;Signal;HPM_P1;HPM_P2
2023/10/14 00:01:13;;;;;;;14.65;8.38;;;;;;;-148.88;100.00;-17125.47;5036561;28;20033;-86
2023/10/14 00:03:45;;;;;;;14.52;8.25;;;;;;;-148.88;100.00;-17125.47;5034738;28;20473;-87
2023/10/14 00:06:12;;;;;;;14.38;8.65;;;;;;;-148.88;100.00;-17125.47;5036478;28;20028;-87
2023/10/14 00:08:48;;;;;;;16.52;8.02;;;;;;;-148.88;100.00;-17125.47;5034649;28;20021;-86
2023/10/14 00:11:17;;;;;;;13.85;7.82;;;;;;;-148.88;100.00;-17125.47;5036063;28;20100;-86
2023/10/14 00:13:48;;;;;;;13.40;7.88;;;;;;;-148.88;100.00;-17125.47;5034914;28;20052;-87
2023/10/14 00:18:50;;;;;;;15.20;8.05;;;;;;;-148.88;100.00;-17125.47;5036456;28;20029;-87
2023/10/14 00:21:16;;;;;;;15.32;8.93;;;;;;;-148.88;100.00;-17125.47;5036018;28;20025;-86
2023/10/14 00:23:41;;;;;;;19.85;9.27;;;;;;;-148.88;100.00;-17125.47;5035980;28;20474;-87
2023/10/14 00:26:14;;;;;;;14.77;8.77;;;;;;;-148.88;100.00;-17125.47;5036507;28;20101;-88
2023/10/14 00:28:41;;;;;;;15.10;8.30;;;;;;;-148.88;100.00;-17125.47;5036819;28;20032;-87
2023/10/14 00:31:10;;;;;;;16.48;7.97;;;;;;;-148.88;100.00;-17125.47;5036185;28;20026;-85
2023/10/14 00:33:35;;;;;;;14.90;8.05;;;;;;;-148.88;100.00;-17125.47;5035698;28;20383;-85
2023/10/14 00:36:01;;;;;;;16.75;8.35;;;;;;;-148.88;100.00;-17125.47;5035548;28;20032;-86
2023/10/14 00:38:27;;;;;;;15.85;8.35;;;;;;;-148.88;100.00;-17125.47;5035803;28;20537;-86
2023/10/14 00:40:52;;;;;;;15.45;8.15;;;;;;;-148.88;100.00;-17125.47;5035388;28;20074;-87
2023/10/14 00:43:20;;;;;;;17.65;9.18;;;;;;;-148.88;100.00;-17125.47;5034295;28;20462;-88
2023/10/14 00:45:47;;;;;;;12.57;6.20;;;;;;;-148.88;100.00;-17125.47;5035187;28;20029;-88
2023/10/14 00:48:20;;;;;;;9.07;4.95;;;;;;;-148.88;100.00;-17125.47;5035397;28;20518;-87
2023/10/14 00:50:46;;;;;;;13.25;4.07;;;;;;;-148.88;100.00;-17125.47;5035240;28;20401;-88
2023/10/14 00:53:11;;;;;;;7.90;3.35;;;;;;;-148.88;100.00;-17125.47;5034061;28;20103;-88
2023/10/14 00:55:51;;;;;;;8.65;3.00;;;;;;;-148.88;100.00;-17125.47;5034265;28;20482;-86
2023/10/14 00:58:23;;;;;;;6.13;3.00;;;;;;;-148.88;100.00;-17125.47;5035694;28;20072;-89
2023/10/14 01:00:58;;;;;;;9.00;3.00;;;;;;;-148.88;100.00;-17125.47;5034174;28;20112;-86
2023/10/14 01:03:25;;;;;;;6.50;2.80;;;;;;;-148.88;100.00;-17125.47;5035386;28;20478;-87
2023/10/14 01:06:06;;;;;;;7.45;3.05;;;;;;;-148.88;100.00;-17125.47;5035349;28;20461;-86
2023/10/14 01:08:37;;;;;;;5.95;2.72;;;;;;;-148.88;100.00;-17125.47;5033874;28;20041;-86
2023/10/14 01:11:03;;;;;;;6.78;2.47;;;;;;;-148.88;100.00;-17125.47;5034433;28;20478;-88
2023/10/14 01:13:29;;;;;;;5.68;2.20;;;;;;;-148.88;100.00;-17125.47;5033609;28;20104;-85
2023/10/14 01:16:03;;;;;;;5.47;2.22;;;;;;;-148.88;100.00;-17125.47;5034998;28;20053;-86
2023/10/14 01:18:31;;;;;;;8.25;2.50;;;;;;;-148.88;100.00;-17125.47;5035104;28;20033;-87
2023/10/14 01:20:57;;;;;;;5.13;2.00;;;;;;;-148.88;100.00;-17125.47;5033723;28;20696;-86
2023/10/14 01:23:24;;;;;;;5.63;2.22;;;;;;;-148.88;100.00;-17125.47;5033121;28;20025;-85
2023/10/14 01:25:53;;;;;;;6.07;2.35;;;;;;;-148.88;100.00;-17125.47;5034338;28;20053;-89
2023/10/14 01:28:21;;;;;;;4.18;2.25;;;;;;;-148.88;100.00;-17125.47;5033311;28;20032;-86
2023/10/14 01:31:33;;;;;;;5.82;2.08;;;;;;;-148.88;100.00;-17125.47;5034307;28;20060;-85
2023/10/14 01:34:01;;;;;;;4.20;1.90;;;;;;;-148.88;100.00;-17125.47;5034148;28;20402;-85
2023/10/14 01:36:32;;;;;;;4.85;2.20;;;;;;;-148.88;100.00;-17125.47;5033060;28;20029;-85
2023/10/14 01:38:59;;;;;;;2.83;1.52;;;;;;;-148.88;100.00;-17125.47;5035148;28;20116;-84
2023/10/14 01:41:30;;;;;;;4.63;1.52;;;;;;;-148.88;100.00;-17125.47;5034685;28;20041;-89
2023/10/14 01:43:58;;;;;;;2.20;0.60;;;;;;;-148.88;100.00;-17125.47;5032992;28;20032;-85
2023/10/14 01:46:27;;;;;;;2.28;0.80;;;;;;;-148.88;100.00;-17125.47;5034564;28;20355;-87
2023/10/14 01:48:52;;;;;;;3.33;0.85;;;;;;;-148.88;100.00;-17125.47;5032994;28;20036;-87
2023/10/14 01:51:19;;;;;;;5.03;0.85;;;;;;;-148.88;100.00;-17125.47;5032936;28;20029;-85
2023/10/14 01:53:44;;;;;;;3.53;0.50;;;;;;;-148.88;100.00;-17125.47;5034314;28;20049;-86
2023/10/14 01:56:10;;;;;;;1.08;0.50;;;;;;;-148.88;100.00;-17125.47;5033895;28;20061;-86
2023/10/14 01:58:36;;;;;;;2.72;0.60;;;;;;;-148.88;100.00;-17125.47;5032724;28;20021;-86
2023/10/14 02:03:47;;;;;;;1.98;0.60;;;;;;;-148.88;100.00;-17125.47;5033806;28;20025;-85
2023/10/14 02:06:18;;;;;;;1.75;0.60;;;;;;;-148.88;100.00;-17125.47;5033728;28;20505;-85
2023/10/14 02:08:50;;;;;;;1.20;0.47;;;;;;;-148.88;100.00;-17125.47;5034045;28;20079;-85
2023/10/14 02:11:16;;;;;;;1.20;0.60;;;;;;;-148.88;100.00;-17125.47;5034118;28;20021;-85
2023/10/14 02:13:42;;;;;;;1.95;0.68;;;;;;;-148.88;100.00;-17125.47;5033980;28;20033;-84
2023/10/14 02:16:08;;;;;;;1.50;0.57;;;;;;;-148.88;100.00;-17125.47;5033700;28;20022;-85
2023/10/14 02:18:38;;;;;;;1.75;0.55;;;;;;;-148.88;100.00;-17125.47;5033813;28;20052;-85
2023/10/14 02:21:16;;;;;;;3.78;0.80;;;;;;;-148.88;100.00;-17125.47;5033718;28;20425;-85
2023/10/14 02:23:45;;;;;;;1.30;0.60;;;;;;;-148.88;100.00;-17125.47;5033421;28;20074;-85
2023/10/14 02:26:30;;;;;;;1.08;0.55;;;;;;;-148.88;100.00;-17125.47;5033761;28;20021;-85
2023/10/14 02:28:57;;;;;;;1.42;0.65;;;;;;;-148.88;100.00;-17125.47;5033896;28;20082;-85
2023/10/14 02:33:54;;;;;;;2.83;0.60;;;;;;;-148.88;100.00;-17125.47;5033940;28;20036;-85
2023/10/14 02:36:20;;;;;;;1.23;0.60;;;;;;;-148.88;100.00;-17125.47;5033555;28;20440;-87
2023/10/14 02:38:56;;;;;;;2.50;0.70;;;;;;;-148.88;100.00;-17125.47;5033223;28;20072;-86
2023/10/14 02:41:26;;;;;;;2.28;0.70;;;;;;;-148.88;100.00;-17125.47;5033232;28;20017;-84
2023/10/14 02:46:32;;;;;;;3.42;0.50;;;;;;;-148.88;100.00;-17125.47;5033430;28;20025;-85
2023/10/14 02:49:02;;;;;;;2.25;0.60;;;;;;;-148.88;100.00;-17125.47;5033121;28;20083;-85
2023/10/14 02:51:44;;;;;;;1.40;0.60;;;;;;;-148.88;100.00;-17125.47;5033467;28;20017;-85
2023/10/14 02:54:18;;;;;;;2.08;0.85;;;;;;;-148.88;100.00;-17125.47;5033143;28;20024;-86
2023/10/14 02:56:56;;;;;;;;;;;;;;;-148.88;100.00;-17125.47;5033487;28;20030;-85
2023/10/14 02:59:36;;;;;;;2.40;0.75;;;;;;;-148.88;100.00;-17125.47;5031480;28;19909;-86
2023/10/14 03:04:44;;;;;;;3.10;0.80;;;;;;;-148.88;100.00;-17125.47;5033278;28;20561;-85
2023/10/14 03:07:09;;;;;;;1.10;0.60;;;;;;;-148.88;100.00;-17125.47;5031394;28;20544;-86
2023/10/14 03:09:35;;;;;;;3.42;0.85;;;;;;;-148.88;100.00;-17125.47;5032626;28;20080;-85
2023/10/14 03:12:01;;;;;;;2.97;1.40;;;;;;;-148.88;100.00;-17125.47;5032458;28;20479;-86
2023/10/14 03:14:28;;;;;;;3.50;1.20;;;;;;;-148.88;100.00;-17125.47;5033129;28;20049;-85
2023/10/14 03:16:54;;;;;;;2.55;1.20;;;;;;;-148.88;100.00;-17125.47;5031613;28;20029;-85
2023/10/14 03:19:19;;;;;;;1.90;1.30;;;;;;;-148.88;100.00;-17125.47;5035787;28;20036;-85
2023/10/14 03:21:58;;;;;;;11.48;1.60;;;;;;;-148.88;100.00;-17125.47;5037379;28;20029;-84
2023/10/14 03:24:30;;;;;;;5.00;1.50;;;;;;;-148.88;100.00;-17125.47;5036995;28;20156;-83
2023/10/14 03:27:02;;;;;;;9.10;1.60;;;;;;;-148.88;100.00;-17125.47;5035678;28;20026;-85
2023/10/14 03:29:28;;;;;;;7.95;1.50;;;;;;;-148.88;100.00;-17125.47;5037030;28;20029;-83
2023/10/14 03:31:57;;;;;;;7.35;1.33;;;;;;;-148.88;100.00;-17125.47;5037030;28;20389;-84
2023/10/14 03:34:29;;;;;;;6.25;1.67;;;;;;;-148.88;100.00;-17125.47;5035219;28;20017;-84
2023/10/14 03:37:00;;;;;;;11.25;2.28;;;;;;;-148.88;100.00;-17125.47;5036739;28;20036;-85
2023/10/14 03:39:40;;;;;;;4.53;1.55;;;;;;;-148.88;100.00;-17125.47;5036556;28;20093;-84
2023/10/14 03:42:10;;;;;;;6.63;1.55;;;;;;;-148.88;100.00;-17125.47;5036310;28;20033;-85
2023/10/14 03:44:35;;;;;;;7.93;1.60;;;;;;;-148.88;100.00;-17125.47;5034965;28;20080;-85
2023/10/14 03:47:01;;;;;;;7.22;1.77;;;;;;;-148.88;100.00;-17125.47;5035489;28;20164;-85
2023/10/14 03:49:26;;;;;;;4.32;1.30;;;;;;;-148.88;100.00;-17125.47;5036416;28;20025;-85
2023/10/14 03:51:56;;;;;;;11.20;2.58;;;;;;;-148.88;100.00;-17125.47;5036592;28;20017;-85
2023/10/14 03:54:26;;;;;;;10.63;1.73;;;;;;;-148.88;100.00;-17125.47;5036236;28;20104;-85
2023/10/14 03:56:52;;;;;;;9.07;1.88;;;;;;;-148.88;100.00;-17125.47;5037333;28;20100;-85
2023/10/14 03:59:21;;;;;;;8.68;1.95;;;;;;;-148.88;100.00;-17125.47;5034708;28;20025;-86
2023/10/14 04:01:46;;;;;;;9.23;1.92;;;;;;;-148.88;100.00;-17125.47;5036263;28;20036;-85
2023/10/14 04:04:18;;;;;;;10.63;2.15;;;;;;;-148.88;100.00;-17125.47;5036490;28;20081;-87
2023/10/14 04:09:51;;;;;;;8.10;1.65;;;;;;;-148.88;100.00;-17125.47;5035997;28;20500;-86
2023/10/14 04:12:33;;;;;;;8.93;2.10;;;;;;;-148.88;100.00;-17125.47;5035995;28;20025;-85
2023/10/14 04:15:05;;;;;;;10.00;1.80;;;;;;;-148.88;100.00;-17125.47;5036247;28;20068;-86
2023/10/14 04:17:31;;;;;;;7.40;1.70;;;;;;;-148.88;100.00;-17125.47;5035740;28;20021;-86
2023/10/14 04:22:38;;;;;;;9.27;1.90;;;;;;;-148.88;100.00;-17125.47;5036785;28;20454;-86
2023/10/14 04:25:19;;;;;;;9.10;2.05;;;;;;;-148.88;100.00;-17125.47;5035730;28;20441;-86
2023/10/14 04:30:32;;;;;;;6.38;1.77;;;;;;;-148.88;100.00;-17125.47;5035913;28;20112;-86
2023/10/14 04:35:31;;;;;;;11.15;2.13;;;;;;;-148.88;100.00;-17125.47;5035876;28;20085;-85
2023/10/14 04:37:58;;;;;;;16.48;2.40;;;;;;;-148.88;100.00;-17125.47;5035977;28;20066;-85
2023/10/14 04:45:45;;;;;;;11.05;2.25;;;;;;;-148.88;100.00;-17125.47;5035682;28;20048;-87
2023/10/14 04:48:16;;;;;;;8.95;2.10;;;;;;;-148.88;100.00;-17125.47;5034179;28;20029;-85
2023/10/14 04:50:42;;;;;;;7.90;2.08;;;;;;;-148.88;100.00;-17125.47;5034813;28;20041;-86
2023/10/14 04:53:13;;;;;;;9.73;2.20;;;;;;;-148.88;100.00;-17125.47;5035242;28;20029;-85
2023/10/14 04:55:43;;;;;;;15.43;2.42;;;;;;;-148.88;100.00;-17125.47;5035451;28;20034;-85
2023/10/14 04:58:15;;;;;;;10.90;2.28;;;;;;;-148.88;100.00;-17125.47;5035352;28;20037;-85
2023/10/14 05:00:47;;;;;;;9.27;1.98;;;;;;;-148.88;100.00;-17125.47;5035535;28;20482;-85
2023/10/14 05:03:13;;;;;;;10.75;2.00;;;;;;;-148.88;100.00;-17125.47;5035301;28;20022;-86
2023/10/14 05:05:41;;;;;;;9.27;1.80;;;;;;;-148.88;100.00;-17125.47;5034981;28;20025;-85
2023/10/14 05:08:12;;;;;;;10.65;1.85;;;;;;;-148.88;100.00;-17125.47;5035362;28;20021;-86
2023/10/14 05:10:41;;;;;;;9.20;2.25;;;;;;;-148.88;100.00;-17125.47;5034153;28;20029;-84
2023/10/14 05:13:09;;;;;;;9.40;1.67;;;;;;;-148.88;100.00;-17125.47;5034821;28;20091;-85
2023/10/14 05:15:39;;;;;;;7.78;2.03;;;;;;;-148.88;100.00;-17125.47;5034917;28;20112;-85
2023/10/14 05:18:05;;;;;;;9.38;2.28;;;;;;;-148.88;100.00;-17125.47;5034890;28;20075;-86
2023/10/14 05:23:19;;;;;;;12.80;2.38;;;;;;;-148.88;100.00;-17125.47;5034991;28;20507;-86
2023/10/14 05:25:48;;;;;;;8.88;2.03;;;;;;;-148.88;100.00;-17125.47;5033201;28;20429;-86
2023/10/14 05:28:14;;;;;;;9.43;2.28;;;;;;;-148.88;100.00;-17125.47;5033321;28;20028;-86
2023/10/14 05:30:39;;;;;;;10.55;2.28;;;;;;;-148.88;100.00;-17125.47;5034686;28;20104;-85
2023/10/14 05:33:08;;;;;;;8.18;2.17;;;;;;;-148.88;100.00;-17125.47;5034592;28;20068;-87
2023/10/14 05:35:38;;;;;;;11.25;2.25;;;;;;;-148.88;100.00;-17125.47;5033280;28;20386;-84
2023/10/14 05:38:11;;;;;;;11.48;2.13;;;;;;;-148.88;100.00;-17125.47;5034410;28;20112;-86
2023/10/14 05:40:38;;;;;;;8.40;2.00;;;;;;;-148.88;100.00;-17125.47;5033937;28;20097;-87
2023/10/14 05:43:06;;;;;;;10.65;2.05;;;;;;;-148.88;100.00;-17125.47;5034517;28;20113;-86
2023/10/14 05:45:34;;;;;;;10.95;2.35;;;;;;;-148.88;100.00;-17125.47;5034203;28;20367;-87
2023/10/14 05:48:00;;;;;;;12.98;2.53;;;;;;;-148.88;100.00;-17125.47;5034226;28;20067;-87
2023/10/14 05:50:25;;;;;;;7.13;2.25;;;;;;;-148.88;100.00;-17125.47;5034266;28;20497;-86
2023/10/14 05:52:50;;;;;;;7.63;2.20;;;;;;;-148.88;100.00;-17125.47;5034289;28;20108;-85
2023/10/14 05:55:21;;;;;;;13.30;2.83;;;;;;;-148.88;100.00;-17125.47;5034157;28;20390;-85
2023/10/14 05:57:48;;;;;;;9.48;2.30;;;;;;;-148.88;100.00;-17125.47;5034360;28;20029;-85
2023/10/14 06:00:25;;;;;;;13.38;2.03;;;;;;;-148.88;100.00;-17125.47;5033996;28;20052;-84
2023/10/14 06:02:52;;;;;;;12.80;2.28;;;;;;;-148.88;100.00;-17125.47;5032522;28;20478;-86
2023/10/14 06:05:19;;;;;;;9.45;2.35;;;;;;;-148.88;100.00;-17125.47;5033761;28;20026;-85
2023/10/14 06:07:46;;;;;;;13.88;2.40;;;;;;;-148.88;100.00;-17125.47;5033737;28;20025;-86
2023/10/14 06:10:13;;;;;;;13.88;2.42;;;;;;;-148.88;100.00;-17125.47;5032532;28;20037;-85
2023/10/14 06:12:39;;;;;;;12.48;2.85;;;;;;;-148.88;100.00;-17125.47;5034143;28;20108;-85
2023/10/14 06:15:09;;;;;;;12.00;2.53;;;;;;;-148.88;100.00;-17125.47;5033674;28;20056;-86
2023/10/14 06:17:38;;;;;;;13.00;2.20;;;;;;;-148.88;100.00;-17125.47;5032414;28;20448;-85
2023/10/14 06:20:07;;;;;;;16.98;2.53;;;;;;;-148.88;100.00;-17125.47;5032404;28;20128;-86
2023/10/14 06:22:32;;;;;;;10.07;2.30;;;;;;;-148.88;100.00;-17125.47;5033678;28;20029;-86
2023/10/14 06:24:58;;;;;;;10.18;2.67;;;;;;;-148.88;100.00;-17125.47;5033481;28;20120;-85
2023/10/14 06:27:24;;;;;;;13.88;2.60;;;;;;;-148.88;100.00;-17125.47;5033654;28;20053;-87
2023/10/14 06:29:51;;;;;;;12.95;2.70;;;;;;;-148.88;100.00;-17125.47;5033674;28;20497;-85
2023/10/14 06:32:16;;;;;;;10.07;2.30;;;;;;;-148.88;100.00;-17125.47;5033545;28;20037;-84
2023/10/14 06:34:42;;;;;;;9.77;2.63;;;;;;;-148.88;100.00;-17125.47;5033306;28;20079;-85
2023/10/14 06:37:07;;;;;;;8.57;2.20;;;;;;;-148.88;100.00;-17125.47;5033310;28;20022;-86
2023/10/14 06:39:39;;;;;;;13.52;2.50;;;;;;;-148.88;100.00;-17125.47;5031939;28;20028;-83
2023/10/14 06:42:05;;;;;;;12.20;2.58;;;;;;;-148.88;100.00;-17125.47;5033193;28;20452;-85
2023/10/14 06:44:32;;;;;;;11.02;2.70;;;;;;;-148.88;100.00;-17125.47;5033189;28;20108;-86
2023/10/14 06:47:00;;;;;;;12.75;2.25;;;;;;;-148.88;100.00;-17125.47;5033298;28;20401;-85
2023/10/14 06:49:36;;;;;;;12.50;2.95;;;;;;;-148.88;100.00;-17125.47;5031776;28;20048;-85
2023/10/14 06:52:04;;;;;;;9.80;2.40;;;;;;;-148.88;100.00;-17125.47;5031412;28;20044;-87
2023/10/14 06:54:36;;;;;;;12.15;2.40;;;;;;;-148.88;100.00;-17125.47;5032827;28;20028;-86
2023/10/14 06:57:07;;;;;;;10.05;2.30;;;;;;;-148.88;100.00;-17125.47;5032146;28;20033;-85
2023/10/14 06:59:33;;;;;;;11.70;2.22;;;;;;;-148.88;100.00;-17125.47;5031800;28;20478;-85
2023/10/14 07:01:59;;;;;;;12.35;2.85;;;;;;;-148.88;100.00;-17125.47;5032755;28;20036;-86
2023/10/14 07:04:25;;;;;;;12.93;2.97;;;;;;;-148.88;100.00;-17125.47;5031331;28;20021;-85
2023/10/14 07:06:51;;;;;;;8.85;2.20;;;;;;;-148.88;100.00;-17125.47;5033041;28;20021;-87
2023/10/14 07:09:17;;;;;;;12.60;2.80;;;;;;;-148.88;100.00;-17125.47;5032778;28;20021;-86
2023/10/14 07:11:46;;;;;;;18.88;2.42;;;;;;;-148.88;100.00;-17125.47;5033011;28;20027;-84
2023/10/14 07:14:12;;;;;;;12.93;2.67;;;;;;;-148.88;100.00;-17125.47;5033224;28;20022;-85
2023/10/14 07:16:37;;;;;;;8.65;2.50;;;;;;;-148.88;100.00;-17125.47;5031366;28;20037;-83
2023/10/14 07:19:03;;;;;;;9.95;2.22;;;;;;;-148.88;100.00;-17125.47;5032978;28;20438;-85
2023/10/14 07:21:29;;;;;;;11.20;2.67;;;;;;;-148.88;100.00;-17125.47;5031216;28;20023;-86
2023/10/14 07:23:55;;;;;;;10.02;2.25;;;;;;;-148.88;100.00;-17125.47;5031947;28;20021;-87
2023/10/14 07:26:22;;;;;;;13.13;2.78;;;;;;;-148.88;100.00;-17125.47;5033026;28;20496;-84
2023/10/14 07:28:56;;;;;;;11.88;2.38;;;;;;;-148.88;100.00;-17125.47;5032916;28;20017;-85
2023/10/14 07:31:23;;;;;;;;;;;;;;;-148.88;100.00;-17125.47;5033261;28;20025;-84
2023/10/14 07:33:49;;;;;;;8.82;2.38;;;;;;;-148.88;100.00;-17125.47;5033005;28;20023;-86
2023/10/14 07:36:15;;;;;;;9.45;2.15;;;;;;;-148.88;100.00;-17125.47;5031792;28;20025;-84
2023/10/14 07:38:43;;;;;;;15.70;2.53;;;;;;;-148.88;100.00;-17125.47;5032817;28;20097;-85
2023/10/14 07:41:10;;;;;;;11.18;1.92;;;;;;;-148.88;100.00;-17125.47;5033052;28;20029;-85
2023/10/14 07:43:36;;;;;;;16.52;2.40;;;;;;;-148.88;100.00;-17125.47;5031309;28;20033;-86
2023/10/14 07:46:03;;;;;;;10.48;2.58;;;;;;;-148.88;100.00;-17125.47;5032765;28;20108;-85
2023/10/14 07:48:28;;;;;;;9.75;2.10;;;;;;;-148.88;100.00;-17125.47;5032631;28;20068;-84
2023/10/14 07:50:58;;;;;;;9.70;2.30;;;;;;;-148.88;100.00;-17125.47;5032819;28;20030;-88
2023/10/14 07:53:24;;;;;;;12.75;2.33;;;;;;;-148.88;100.00;-17125.47;5031290;28;20024;-86
2023/10/14 07:55:52;;;;;;;11.30;2.53;;;;;;;-148.88;100.00;-17125.47;5032756;28;20028;-84
2023/10/14 07:58:25;;;;;;;17.20;2.72;;;;;;;-148.88;100.00;-17125.47;5031356;28;20577;-85
2023/10/14 08:00:54;;;;;;;12.05;2.35;;;;;;;-148.88;100.00;-17125.47;5032532;28;20128;-85
2023/10/14 08:03:24;;;;;;;12.43;2.20;;;;;;;-148.88;100.00;-17125.47;5032426;28;20032;-87
2023/10/14 08:05:52;;;;;;;12.23;2.15;;;;;;;-148.88;100.00;-17125.47;5035981;28;20517;-85
2023/10/14 08:08:19;;;;;;;12.38;2.85;;;;;;;-148.88;100.00;-17125.47;5034810;28;20022;-85
2023/10/14 08:10:47;;;;;;;10.98;2.13;;;;;;;-148.88;100.00;-17125.47;5035919;28;20069;-85
2023/10/14 08:13:13;;;;;;;10.23;2.30;;;;;;;-148.88;100.00;-17125.47;5036343;28;20355;-86
2023/10/14 08:15:42;;;;;;;11.50;2.15;;;;;;;-148.88;100.00;-17125.47;5036032;28;20017;-85
2023/10/14 08:18:08;;;;;;;9.88;2.10;;;;;;;-148.88;100.00;-17125.47;5034446;28;20029;-85
2023/10/14 08:20:34;;;;;;;10.43;2.30;;;;;;;-148.88;100.00;-17125.47;5036248;28;20498;-86
2023/10/14 08:23:01;;;;;;;11.57;2.45;;;;;;;-148.88;100.00;-17125.47;5035825;28;20127;-85
2023/10/14 08:25:28;;;;;;;17.63;2.63;;;;;;;-148.88;100.00;-17125.47;5035896;28;20394;-84
2023/10/14 08:27:55;;;;;;;14.75;3.10;;;;;;;-148.88;100.00;-17125.47;5035770;28;20017;-85
2023/10/14 08:30:24;;;;;;;14.23;2.88;;;;;;;-148.88;100.00;-17125.47;5034567;28;20025;-86
2023/10/14 08:32:52;;;;;;;10.85;2.50;;;;;;;-148.88;100.00;-17125.47;5036089;28;20524;-86
2023/10/14 08:35:19;;;;;;;9.73;2.38;;;;;;;-148.88;100.00;-17125.47;5034414;28;20439;-85
2023/10/14 08:37:52;;;;;;;12.38;2.40;;;;;;;-148.88;100.00;-17125.47;5035899;28;20127;-85
2023/10/14 08:40:20;;;;;;;15.27;2.33;;;;;;;-148.88;100.00;-17125.47;5035741;28;20029;-87
2023/10/14 08:42:50;;;;;;;11.90;2.30;;;;;;;-148.88;100.00;-17125.47;5034332;28;20065;-87
2023/10/14 08:45:20;;;;;;;12.70;2.88;;;;;;;-148.88;100.00;-17125.47;5034003;28;20038;-86
2023/10/14 08:47:50;;;;;;;12.13;2.38;;;;;;;-148.88;100.00;-17125.47;5035743;28;20122;-88
2023/10/14 08:50:21;;;;;;;13.70;2.63;;;;;;;-148.88;100.00;-17125.47;5034505;28;20036;-87
2023/10/14 08:52:49;;;;;;;11.90;2.78;;;;;;;-148.88;100.00;-17125.47;5035271;28;20036;-87
2023/10/14 08:55:19;;;;;;;13.52;2.63;;;;;;;-148.88;100.00;-17125.47;5035012;28;20021;-86
2023/10/14 08:57:46;;;;;;;11.90;2.20;;;;;;;-148.88;100.00;-17125.47;5035108;28;20025;-87
2023/10/14 09:00:20;;;;;;;10.65;2.13;;;;;;;-148.88;100.00;-17125.47;5033807;28;20021;-86
2023/10/14 09:02:50;;;;;;;11.45;2.28;;;;;;;-148.88;100.00;-17125.47;5034829;28;20406;-87
2023/10/14 09:05:19;;;;;;;12.23;2.58;;;;;;;-148.88;100.00;-17125.47;5034664;28;20017;-86
2023/10/14 09:07:49;;;;;;;15.50;2.45;;;;;;;-148.88;100.00;-17125.47;5033810;28;20021;-86
2023/10/14 09:10:18;;;;;;;12.30;2.50;;;;;;;-148.88;100.00;-17125.47;5033780;28;20049;-89
2023/10/14 09:12:57;;;;;;;9.07;2.17;;;;;;;-148.88;100.00;-17125.47;5034855;28;20028;-87
2023/10/14 09:15:38;;;;;;;11.32;2.00;;;;;;;-148.88;100.00;-17125.47;5033313;28;20032;-87
2023/10/14 09:18:09;;;;;;;11.18;2.47;;;;;;;-148.88;100.00;-17125.47;5035081;28;20025;-87
2023/10/14 09:20:38;;;;;;;10.48;2.30;;;;;;;-148.88;98.77;-17125.47;5035092;28;20477;-86
2023/10/14 09:23:16;;;;;;;10.82;2.30;;;;;;;-148.88;95.11;-17125.47;5034844;28;20059;-91
2023/10/14 09:25:48;;;;;;;11.55;2.90;;;;;;;-148.88;98.44;-17125.47;5034928;28;20104;-87
2023/10/14 09:28:16;;;;;;;11.00;2.47;;;;;;;-148.88;96.51;-17125.47;5034899;28;20486;-88
2023/10/14 09:30:49;;;;;;;13.23;2.25;;;;;;;-148.88;96.76;-17125.47;5034910;28;20026;-87
2023/10/14 09:33:17;;;;;;;13.15;2.28;;;;;;;-148.88;94.72;-17125.47;5035748;28;20022;-88
2023/10/14 09:35:50;;;;;;;12.68;2.45;;;;;;;-148.88;96.08;-17125.47;5035026;28;20537;-86
2023/10/14 09:38:22;;;;;;;9.88;2.35;;;;;;;-148.88;92.90;-17125.47;5034415;28;20029;-88
2023/10/14 09:41:08;;;;;;;11.90;2.75;;;;;;;-148.88;92.12;-17125.47;5034316;28;20115;-89
2023/10/14 09:43:35;;;;;;;10.38;2.50;;;;;;;-148.88;90.90;-17125.47;5034008;28;20029;-87
2023/10/14 09:46:04;;;;;;;10.68;1.85;;;;;;;-148.88;88.86;-17125.47;5033139;28;20029;-88
2023/10/14 09:48:31;;;;;;;9.93;2.45;;;;;;;-148.88;91.38;-17125.47;5034179;28;20033;-86
2023/10/14 09:51:00;;;;;;;9.20;2.35;;;;;;;-148.88;90.48;-17125.47;5034381;28;20045;-86
2023/10/14 09:53:27;;;;;;;13.35;2.88;;;;;;;-148.88;88.36;-17125.47;5034173;28;20489;-86
2023/10/14 09:55:58;;;;;;;9.45;2.35;;;;;;;-148.88;91.75;-17125.47;5033129;28;20025;-89
2023/10/14 09:58:26;;;;;;;10.45;2.40;;;;;;;-148.88;93.42;-17125.47;5034145;28;20025;-89
2023/10/14 10:00:52;;;;;;;12.18;2.80;;;;;;;-148.88;91.66;-17125.47;5034705;28;20105;-88
2023/10/14 10:03:19;;;;;;;12.50;2.50;;;;;;;-148.88;91.56;-17125.47;5038508;28;20107;-87
2023/10/14 10:06:14;;;;;;;9.65;2.20;;;;;;;-148.88;90.88;-17125.47;5035615;28;20033;-86
2023/10/14 10:09:19;;;;;;;7.20;2.10;;;;;;;-148.88;87.21;-17125.47;5026663;28;20067;-88
2023/10/14 10:11:46;;;;;;;15.65;2.90;;;;;;;-148.88;87.88;-17125.47;5032871;28;20029;-90
2023/10/14 10:14:16;;;;;;;12.85;2.97;;;;;;;-148.88;86.33;-17125.47;5033898;28;20490;-87
2023/10/14 10:16:42;;;;;;;11.23;2.10;;;;;;;-148.88;87.39;-17125.47;5033730;28;20112;-88
2023/10/14 10:19:10;;;;;;;12.45;2.40;;;;;;;-148.88;86.45;-17125.47;5033764;28;20049;-89
2023/10/14 10:21:40;;;;;;;11.82;2.28;;;;;;;-148.88;84.48;-17125.47;5032651;28;20021;-88
2023/10/14 10:24:38;;;;;;;12.27;3.00;;;;;;;-148.88;84.67;-17125.47;5032502;28;20026;-88
2023/10/14 10:27:03;;;;;;;9.30;2.42;;;;;;;-148.88;86.37;-17125.47;5033537;28;20032;-90
2023/10/14 10:29:33;;;;;;;12.52;2.60;;;;;;;-148.88;87.27;-17125.47;5033702;28;20026;-89
2023/10/14 10:32:09;;;;;;;12.20;2.90;;;;;;;-148.88;87.84;-17125.47;5033514;28;20029;-88
2023/10/14 10:34:54;;;;;;;9.57;2.33;;;;;;;-148.88;87.55;-17125.47;5032306;28;20074;-87
2023/10/14 10:37:19;;;;;;;8.90;2.20;;;;;;;-148.88;84.19;-17125.47;5033373;28;20021;-88
2023/10/14 10:39:45;;;;;;;15.38;2.85;;;;;;;-148.88;85.04;-17125.47;5033568;28;20049;-87
2023/10/14 10:44:39;;;;;;;12.73;2.80;;;;;;;-148.88;87.27;-17125.47;5009905;28;20422;-75
2023/10/14 10:47:09;;;;;;;9.65;2.40;;;;;;;-148.88;87.23;-17125.47;5012676;28;20115;-75
2023/10/14 10:49:59;;;;;;;11.77;2.25;;;;;;;-148.88;85.09;-17125.47;5022357;28;20461;-75
2023/10/14 10:52:27;;;;;;;10.35;2.28;;;;;;;-148.88;85.67;-17125.47;5032541;28;20096;-75
2023/10/14 10:54:53;;;;;;;11.82;2.65;;;;;;;-148.88;84.79;-17125.47;5032596;28;20029;-75
2023/10/14 10:57:19;;;;;;;10.48;2.85;;;;;;;-148.88;82.25;-17125.47;5032765;28;20025;-75
2023/10/14 10:59:46;;;;;;;9.15;2.40;;;;;;;-148.88;81.68;-17125.47;5032942;28;20021;-75
2023/10/14 11:02:13;;;;;;;10.40;2.50;;;;;;;-148.88;79.07;-17125.47;5031860;28;20540;-75
2023/10/14 11:04:41;;;;;;;12.07;2.63;;;;;;;-148.88;79.69;-17125.47;5032233;28;20021;-75
2023/10/14 11:07:11;;;;;;;10.05;2.00;;;;;;;-148.88;78.32;-17125.47;5033655;28;20053;-76
2023/10/14 11:09:39;;;;;;;12.93;2.35;;;;;;;-148.88;78.13;-17125.47;5032611;28;20024;-76
2023/10/14 11:12:14;;;;;;;9.70;2.38;;;;;;;-148.88;76.41;-17125.47;5031251;28;20528;-76
2023/10/14 11:14:39;;;;;;;9.63;2.28;;;;;;;-148.88;76.32;-17125.47;5032659;28;20021;-76
2023/10/14 11:17:06;;;;;;;13.57;2.53;;;;;;;-148.88;79.58;-17125.47;5032847;28;20025;-76
2023/10/14 11:19:32;;;;;;;9.50;2.22;;;;;;;-148.88;73.56;-17125.47;5032430;28;20413;-75
2023/10/14 11:21:59;;;;;;;10.93;2.00;;;;;;;-148.88;76.67;-17125.47;5032605;28;20076;-76
2023/10/14 11:24:26;;;;;;;8.00;2.20;;;;;;;-148.88;74.45;-17125.47;5031037;28;20025;-76
2023/10/14 11:26:53;;;;;;;9.13;2.25;;;;;;;-148.88;76.98;-17125.47;5032371;28;20048;-76
2023/10/14 11:29:23;;;;;;;9.30;2.20;;;;;;;-148.88;76.71;-17125.47;5032244;28;20026;-76
2023/10/14 11:31:53;;;;;;;7.88;1.92;;;;;;;-148.88;67.64;-17125.47;5032482;28;20032;-75
2023/10/14 11:34:20;;;;;;;8.40;1.95;;;;;;;-148.88;64.36;-17125.47;5031377;28;20014;-75
2023/10/14 11:36:48;;;;;;;8.00;2.10;;;;;;;-148.88;68.06;-17125.47;5032822;28;20032;-76
2023/10/14 11:39:16;;;;;;;7.65;1.90;;;;;;;-148.88;71.98;-17125.47;5033734;28;20033;-75
2023/10/14 11:41:41;;;;;;;8.65;2.10;;;;;;;-148.88;70.62;-17125.47;5035889;28;20021;-75
2023/10/14 11:44:07;;;;;;;8.13;2.00;;;;;;;-148.88;72.32;-17125.47;5035844;28;20151;-75